Time;durP1;ratioP1;P1;durP2;ratioP2;P2;SDS_P1;SDS_P2;PMS_P1;PMS_P2;Temp;Humidity;BMP_temperature;BMP_pressure;BME280_temperature;BME280_humidity;BME280_pressure;Samples;Min_cycle;Max_cycle;Signal;HPM_P1;HPM_P2
2023/01/11 00:00:25;;;;;;;1.13;0.52;;;;;;;8.31;100.00;100673.88;5008669;28;20450;-71
2023/01/11 00:02:58;;;;;;;2.00;0.35;;;;;;;8.24;100.00;100675.41;5023989;28;20075;-72
2023/01/11 00:05:24;;;;;;;0.50;0.28;;;;;;;8.25;100.00;100676.22;5008131;28;20080;-71
2023/01/11 00:07:50;;;;;;;0.95;0.45;;;;;;;8.21;100.00;100670.53;5001048;28;20057;-73
2023/01/11 00:10:16;;;;;;;1.83;0.60;;;;;;;8.18;100.00;100681.16;5009437;28;20132;-72
2023/01/11 00:12:41;;;;;;;1.80;0.30;;;;;;;8.26;100.00;100667.53;4989643;28;20500;-72
2023/01/11 00:15:07;;;;;;;1.88;0.22;;;;;;;8.27;100.00;100663.97;5004730;28;20038;-73
2023/01/11 00:17:33;;;;;;;2.22;0.30;;;;;;;8.19;100.00;100665.53;5024838;28;20080;-73
2023/01/11 00:19:58;;;;;;;0.75;0.35;;;;;;;8.21;100.00;100670.53;5025098;28;20447;-72
2023/01/11 00:22:24;;;;;;;1.42;0.38;;;;;;;8.17;100.00;100662.28;5007886;28;20407;-72
2023/01/11 00:24:50;;;;;;;1.63;0.40;;;;;;;8.24;100.00;100657.34;5026776;28;20046;-73
2023/01/11 00:27:15;;;;;;;1.23;0.47;;;;;;;8.31;100.00;100657.59;5030937;28;20061;-72
2023/01/11 00:29:41;;;;;;;0.55;0.22;;;;;;;8.31;100.00;100650.63;5012328;28;20057;-72
2023/01/11 00:32:06;;;;;;;0.80;0.35;;;;;;;8.36;100.00;100650.19;5005012;28;20061;-72
2023/01/11 00:34:32;;;;;;;0.98;0.30;;;;;;;8.49;100.00;100645.50;4994461;28;20030;-72
2023/01/11 00:36:57;;;;;;;2.85;0.45;;;;;;;8.44;100.00;100647.75;5010846;28;20546;-73
2023/01/11 00:39:23;;;;;;;1.75;0.30;;;;;;;8.53;100.00;100636.53;5013183;28;20037;-72
2023/01/11 00:50:01;;;;;;;1.13;0.50;;;;;;;8.60;100.00;100628.97;4998679;28;20108;-72
2023/01/11 00:52:27;;;;;;;1.90;0.35;;;;;;;8.59;100.00;100624.78;5007506;28;21816;-72
2023/01/11 00:54:52;;;;;;;0.60;0.32;;;;;;;8.58;100.00;100625.75;5020512;28;20038;-73
2023/01/11 00:57:18;;;;;;;1.60;0.25;;;;;;;8.58;100.00;100626.53;5010569;28;20068;-73
2023/01/11 00:59:43;;;;;;;0.95;0.30;;;;;;;8.59;100.00;100622.22;5000567;28;20061;-73
2023/01/11 01:02:10;;;;;;;0.50;0.30;;;;;;;8.64;100.00;100616.59;5002408;28;20041;-72
2023/01/11 01:04:36;;;;;;;0.95;0.30;;;;;;;8.75;100.00;100619.75;5007346;28;20045;-72
2023/01/11 01:07:02;;;;;;;0.52;0.20;;;;;;;8.80;100.00;100608.16;5005320;28;20029;-73
2023/01/11 01:09:28;;;;;;;1.67;0.40;;;;;;;8.75;100.00;100609.41;5018136;28;20046;-73
2023/01/11 01:11:54;;;;;;;0.30;0.20;;;;;;;8.85;100.00;100606.75;5006907;28;20510;-73
2023/01/11 01:14:27;;;;;;;0.15;0.15;;;;;;;8.91;100.00;100607.91;4996091;28;20038;-72
2023/01/11 01:17:08;;;;;;;0.28;0.20;;;;;;;8.82;100.00;100601.88;5006756;28;20046;-73
2023/01/11 01:19:37;;;;;;;1.75;0.20;;;;;;;8.86;100.00;100589.47;5009893;28;20120;-72
2023/01/11 01:22:03;;;;;;;0.30;0.20;;;;;;;9.10;100.00;100592.25;5009165;28;20037;-73
2023/01/11 01:24:29;;;;;;;0.52;0.40;;;;;;;9.05;100.00;100607.38;4986851;28;20393;-72
2023/01/11 01:26:56;;;;;;;1.30;0.30;;;;;;;9.12;100.00;100592.91;5005471;28;20065;-73
2023/01/11 01:29:21;;;;;;;0.85;0.20;;;;;;;9.15;100.00;100595.19;5012206;28;20095;-73
2023/01/11 01:31:47;;;;;;;1.40;0.35;;;;;;;9.13;100.00;100591.91;5015477;28;20497;-72
2023/01/11 01:34:13;;;;;;;0.88;0.35;;;;;;;9.23;100.00;100588.41;5005883;28;20038;-73
2023/01/11 01:36:38;;;;;;;1.55;0.30;;;;;;;9.22;100.00;100576.47;5004366;28;20034;-73
2023/01/11 01:39:06;;;;;;;0.40;0.30;;;;;;;9.28;100.00;100575.84;5005756;28;20026;-73
2023/01/11 01:41:33;;;;;;;2.63;0.40;;;;;;;9.26;100.00;100581.16;5018905;28;20492;-73
2023/01/11 01:44:04;;;;;;;0.40;0.20;;;;;;;9.28;100.00;100583.59;4986977;28;20396;-73
2023/01/11 01:46:32;;;;;;;0.25;0.20;;;;;;;9.26;100.00;100583.75;5016922;28;20133;-72
2023/01/11 01:49:15;;;;;;;0.68;0.25;;;;;;;9.43;100.00;100578.69;5000279;28;20065;-72
2023/01/11 01:51:56;;;;;;;2.97;0.47;;;;;;;9.39;100.00;100575.59;5005461;28;20029;-72
2023/01/11 01:54:28;;;;;;;3.70;0.30;;;;;;;9.48;100.00;100581.63;5006870;28;20041;-72
2023/01/11 01:57:01;;;;;;;0.75;0.50;;;;;;;9.42;100.00;100570.13;5003282;28;20073;-73
2023/01/11 01:59:30;;;;;;;0.65;0.20;;;;;;;9.57;100.00;100585.06;5002205;28;20045;-73
2023/01/11 02:01:56;;;;;;;0.55;0.25;;;;;;;9.58;100.00;100582.31;5009728;28;20488;-72
2023/01/11 02:04:32;;;;;;;0.20;0.20;;;;;;;9.56;100.00;100579.06;5005936;28;20042;-72
2023/01/11 02:07:05;;;;;;;0.75;0.25;;;;;;;9.52;100.00;100575.97;5008973;28;20056;-72
2023/01/11 02:09:37;;;;;;;;;;;;;;;9.61;100.00;100570.84;4987843;28;20068;-73
2023/01/11 02:12:04;;;;;;;0.63;0.28;;;;;;;9.58;100.00;100574.56;5005773;28;20312;-73
2023/01/11 02:14:31;;;;;;;1.67;0.20;;;;;;;9.64;100.00;100570.53;5023649;28;20099;-72
2023/01/11 02:16:57;;;;;;;0.30;0.20;;;;;;;9.72;100.00;100562.81;5007009;28;20034;-72
2023/01/11 02:19:57;;;;;;;0.28;0.20;;;;;;;9.75;100.00;100560.69;5005153;28;20488;-73
2023/01/11 02:23:00;;;;;;;1.17;0.30;;;;;;;9.72;100.00;100548.09;5002401;28;20054;-73
2023/01/11 02:26:02;;;;;;;1.63;0.40;;;;;;;9.80;100.00;100562.84;5001673;28;20088;-72
2023/01/11 02:28:49;;;;;;;2.85;0.40;;;;;;;9.93;100.00;100541.69;5002379;28;20040;-73
2023/01/11 02:31:24;;;;;;;1.73;0.45;;;;;;;10.01;100.00;100540.88;5020535;28;20046;-73
2023/01/11 02:34:02;;;;;;;2.47;0.60;;;;;;;9.95;100.00;100544.91;4990492;28;20111;-73
2023/01/11 02:36:36;;;;;;;3.70;0.98;;;;;;;9.92;100.00;100527.91;5002737;28;20057;-73
2023/01/11 02:39:29;;;;;;;3.05;1.30;;;;;;;9.94;100.00;100531.16;5004684;28;20115;-72
2023/01/11 02:45:04;;;;;;;2.92;0.82;;;;;;;10.02;100.00;100529.53;5004295;28;20076;-73
2023/01/11 02:47:40;;;;;;;1.25;0.70;;;;;;;9.97;100.00;100535.22;5007688;28;20048;-73
2023/01/11 02:50:17;;;;;;;2.65;1.20;;;;;;;10.13;100.00;100522.28;5020088;28;20058;-71
2023/01/11 02:52:53;;;;;;;1.38;0.75;;;;;;;10.20;100.00;100527.63;5005276;28;20119;-73
2023/01/11 02:55:25;;;;;;;2.00;0.90;;;;;;;10.27;100.00;100520.84;5012688;28;20034;-70
2023/01/11 02:57:54;;;;;;;1.10;0.60;;;;;;;10.18;100.00;100515.81;5009136;28;20029;-73
2023/01/11 03:00:20;;;;;;;1.38;0.68;;;;;;;10.11;100.00;100518.22;5008437;28;20096;-73
2023/01/11 03:02:46;;;;;;;1.15;0.70;;;;;;;10.21;100.00;100516.31;5005498;28;20061;-73
2023/01/11 03:05:13;;;;;;;0.63;0.50;;;;;;;10.17;100.00;100517.59;5009288;28;20056;-73
2023/01/11 03:07:48;;;;;;;1.23;0.40;;;;;;;10.22;100.00;100517.13;5008590;28;20030;-73
2023/01/11 03:10:27;;;;;;;0.85;0.30;;;;;;;10.20;100.00;100519.84;5001403;28;20613;-73
2023/01/11 03:13:26;;;;;;;0.25;0.17;;;;;;;10.21;100.00;100508.53;4999454;28;20062;-73
2023/01/11 03:16:03;;;;;;;0.30;0.20;;;;;;;10.17;100.00;100521.97;5001612;28;20135;-72
2023/01/11 03:18:40;;;;;;;0.20;0.10;;;;;;;10.15;100.00;100514.34;5023869;28;22429;-73
2023/01/11 03:21:24;;;;;;;0.63;0.17;;;;;;;10.12;100.00;100493.94;5002640;28;20038;-72
2023/01/11 03:24:00;;;;;;;1.55;0.28;;;;;;;10.14;100.00;100516.13;5022273;28;20034;-73
2023/01/11 03:26:40;;;;;;;0.77;0.10;;;;;;;10.12;100.00;100507.72;5003426;28;20088;-73
2023/01/11 03:29:25;;;;;;;0.47;0.20;;;;;;;10.13;100.00;100508.50;5006966;28;20060;-73
2023/01/11 03:32:06;;;;;;;0.10;0.10;;;;;;;10.10;100.00;100508.84;5004377;28;20356;-73
2023/01/11 03:35:01;;;;;;;2.78;0.13;;;;;;;10.07;100.00;100502.19;5000670;28;20030;-73
2023/01/11 03:37:36;;;;;;;0.50;0.20;;;;;;;10.02;100.00;100503.63;5004347;28;20378;-72
2023/01/11 03:40:12;;;;;;;11.73;3.55;;;;;;;9.94;100.00;100500.09;5005139;28;20050;-73
2023/01/11 03:43:09;;;;;;;69.30;19.75;;;;;;;9.91;100.00;100504.78;5013221;28;20471;-73
2023/01/11 03:45:30;;;;;;;12.63;4.32;;;;;;;9.95;100.00;100500.88;5011211;28;20042;-73
2023/01/11 03:47:59;;;;;;;2.30;0.57;;;;;;;9.91;100.00;100515.94;5009323;28;20041;-73
2023/01/11 03:50:26;;;;;;;5.05;1.55;;;;;;;9.97;100.00;100501.53;5022485;28;20141;-73
2023/01/11 03:52:54;;;;;;;4.00;1.88;;;;;;;9.99;100.00;100496.19;5010249;28;20026;-72
2023/01/11 03:55:25;;;;;;;9.10;5.18;;;;;;;9.97;100.00;100490.38;5005543;28;20030;-73
2023/01/11 03:57:53;;;;;;;0.40;0.30;;;;;;;9.95;100.00;100487.94;5022232;23;20502;-72
2023/01/11 04:00:24;;;;;;;0.88;0.30;;;;;;;9.89;100.00;100491.16;5042778;28;20047;-73
2023/01/11 04:02:52;;;;;;;0.10;0.10;;;;;;;9.87;100.00;100493.91;5032504;28;20079;-73
2023/01/11 04:05:18;;;;;;;1.25;0.43;;;;;;;9.95;100.00;100500.88;5012555;28;20048;-73
2023/01/11 04:07:44;;;;;;;3.25;0.98;;;;;;;9.89;100.00;100498.94;5018843;28;20033;-73
2023/01/11 04:10:10;;;;;;;0.20;0.20;;;;;;;9.92;100.00;100496.81;5007290;28;20136;-73
2023/01/11 04:12:36;;;;;;;0.95;0.52;;;;;;;9.85;100.00;100493.25;4993043;28;20431;-72
2023/01/11 04:15:04;;;;;;;0.40;0.20;;;;;;;9.93;100.00;100485.50;5006607;28;20045;-73
2023/01/11 04:17:29;;;;;;;0.60;0.20;;;;;;;9.87;100.00;100487.91;5009602;28;20391;-72
2023/01/11 04:19:55;;;;;;;0.68;0.15;;;;;;;9.77;100.00;100482.88;5018341;28;20130;-73
2023/01/11 04:22:20;;;;;;;0.65;0.40;;;;;;;9.80;100.00;100494.72;5024852;28;20487;-73
2023/01/11 04:24:46;;;;;;;0.30;0.20;;;;;;;9.86;100.00;100487.09;5008380;28;20046;-73
2023/01/11 04:27:11;;;;;;;1.77;0.90;;;;;;;9.97;100.00;100482.59;5019661;28;20041;-73
2023/01/11 04:29:37;;;;;;;0.30;0.30;;;;;;;9.91;100.00;100492.63;5007908;28;20030;-73
2023/01/11 04:32:03;;;;;;;0.88;0.40;;;;;;;9.87;100.00;100488.72;4993107;28;20095;-73
2023/01/11 04:34:28;;;;;;;2.28;0.30;;;;;;;9.81;100.00;100489.34;5006549;28;20118;-73
2023/01/11 04:36:54;;;;;;;0.20;0.20;;;;;;;9.87;100.00;100485.31;5025149;28;20033;-73
2023/01/11 04:39:19;;;;;;;5.78;2.60;;;;;;;9.77;100.00;100479.47;5009324;28;20033;-73
2023/01/11 04:44:29;;;;;;;1.05;0.65;;;;;;;9.81;100.00;100489.34;5019760;28;20045;-74
2023/01/11 04:46:54;;;;;;;1.83;0.77;;;;;;;9.88;100.00;100490.34;5023610;28;20037;-72
2023/01/11 04:49:20;;;;;;;3.25;1.45;;;;;;;9.96;100.00;100491.31;5021239;28;20034;-73
2023/01/11 04:51:45;;;;;;;4.57;1.10;;;;;;;9.99;100.00;100491.03;5006855;28;20068;-72
2023/01/11 04:54:11;;;;;;;3.63;0.73;;;;;;;9.89;100.00;100489.38;5013896;28;20061;-73
2023/01/11 04:56:37;;;;;;;1.92;1.15;;;;;;;9.92;100.00;100489.03;4993151;28;20045;-72
2023/01/11 04:59:02;;;;;;;5.40;2.13;;;;;;;9.80;100.00;100490.31;5004324;28;20041;-73
2023/01/11 05:01:27;;;;;;;2.40;1.02;;;;;;;9.77;100.00;100489.84;5007924;28;20048;-73
2023/01/11 05:03:54;;;;;;;1.35;0.50;;;;;;;9.82;100.00;100487.59;4990914;28;20557;-73
2023/01/11 05:06:21;;;;;;;2.22;0.60;;;;;;;9.87;100.00;100488.72;5005280;28;20045;-73
2023/01/11 05:08:47;;;;;;;1.42;0.88;;;;;;;9.80;100.00;100499.88;5024141;28;20531;-73
2023/01/11 05:11:14;;;;;;;3.10;0.60;;;;;;;9.83;100.00;100497.78;5002599;28;20041;-73
2023/01/11 05:13:42;;;;;;;0.70;0.40;;;;;;;9.86;100.00;100487.09;5013791;28;20716;-73
2023/01/11 05:16:10;;;;;;;0.30;0.30;;;;;;;9.90;100.00;100487.59;5023116;28;20048;-73
2023/01/11 05:18:50;;;;;;;0.22;0.20;;;;;;;9.93;100.00;100492.47;5022052;28;20385;-73
2023/01/11 05:21:19;;;;;;;1.00;0.70;;;;;;;9.88;100.00;100495.50;5004678;28;20040;-73
2023/01/11 05:23:45;;;;;;;1.02;0.20;;;;;;;9.96;100.00;100489.53;5006599;28;20425;-73
2023/01/11 05:26:12;;;;;;;0.60;0.50;;;;;;;9.97;100.00;100503.31;5020225;28;20025;-72
2023/01/11 05:28:37;;;;;;;3.42;0.60;;;;;;;9.90;100.00;100497.94;5008039;28;20063;-73
2023/01/11 05:31:03;;;;;;;28.20;11.95;;;;;;;9.92;100.00;100498.59;5018015;28;20040;-73
2023/01/11 05:33:29;;;;;;;3.55;0.95;;;;;;;9.89;100.00;100483.41;5008823;28;20415;-73
2023/01/11 05:36:21;;;;;;;11.10;5.15;;;;;;;9.88;100.00;100494.72;5002248;28;20040;-73
2023/01/11 05:38:50;;;;;;;1.65;1.20;;;;;;;9.93;100.00;100490.69;5002653;28;20427;-73
2023/01/11 05:41:17;;;;;;;4.78;3.00;;;;;;;9.97;100.00;100501.53;4998438;28;20042;-72
2023/01/11 05:46:29;;;;;;;3.42;1.00;;;;;;;9.93;100.00;100482.09;5021424;28;20069;-73
2023/01/11 05:48:55;;;;;;;3.70;0.40;;;;;;;9.99;100.00;100496.19;5008046;28;20975;-73
2023/01/11 05:51:21;;;;;;;1.55;0.70;;;;;;;9.92;100.00;100502.00;5006660;28;20040;-72
2023/01/11 05:53:47;;;;;;;1.00;0.70;;;;;;;9.98;100.00;100507.53;5008826;28;20025;-73
2023/01/11 05:56:12;;;;;;;1.80;1.30;;;;;;;10.06;100.00;100497.19;5004220;28;20496;-73
2023/01/11 05:58:38;;;;;;;1.40;0.90;;;;;;;10.03;100.00;100489.72;5009046;28;20495;-73
2023/01/11 06:01:05;;;;;;;0.50;0.40;;;;;;;9.93;100.00;100489.88;5004762;28;20045;-73
2023/01/11 06:03:30;;;;;;;1.10;0.30;;;;;;;9.96;100.00;100499.91;5006790;28;20434;-73
2023/01/11 06:05:58;;;;;;;0.70;0.40;;;;;;;9.82;100.00;100485.81;5000574;28;20041;-73
2023/01/11 06:08:24;;;;;;;0.63;0.30;;;;;;;9.93;100.00;100495.84;5017517;28;20168;-73
2023/01/11 06:10:55;;;;;;;0.17;0.17;;;;;;;9.92;100.00;100486.44;5003347;28;20518;-73
2023/01/11 06:13:25;;;;;;;0.20;0.10;;;;;;;9.92;100.00;100488.25;5003088;28;20025;-72
2023/01/11 06:16:04;;;;;;;0.10;0.10;;;;;;;9.90;100.00;100485.00;5002427;28;20120;-73
2023/01/11 06:18:32;;;;;;;13.13;5.50;;;;;;;9.90;100.00;100487.59;5006479;28;20237;-73
2023/01/11 06:20:58;;;;;;;6.18;2.55;;;;;;;9.98;100.00;100495.38;5007873;28;20033;-73
2023/01/11 06:23:24;;;;;;;11.75;4.38;;;;;;;10.05;100.00;100495.56;5007754;28;20113;-73
2023/01/11 06:25:50;;;;;;;9.43;4.57;;;;;;;10.08;100.00;100495.25;4990800;28;20049;-74
2023/01/11 06:28:16;;;;;;;8.63;3.40;;;;;;;10.00;100.00;100503.81;5009447;28;20064;-72
2023/01/11 06:30:41;;;;;;;13.85;6.93;;;;;;;9.90;100.00;100506.53;4993602;28;20040;-73
2023/01/11 06:33:07;;;;;;;15.48;6.80;;;;;;;10.01;100.00;100509.81;5010965;28;20403;-73
2023/01/11 06:35:37;;;;;;;1.25;0.85;;;;;;;10.08;100.00;100501.22;5009899;28;20030;-70
2023/01/11 06:38:02;;;;;;;1.90;1.13;;;;;;;10.13;100.00;100511.09;5023087;28;20029;-73
2023/01/11 06:40:28;;;;;;;2.78;1.63;;;;;;;9.99;100.00;100515.13;4989885;28;20360;-73
2023/01/11 06:42:54;;;;;;;2.38;1.17;;;;;;;10.04;100.00;100512.88;4991715;28;20033;-73
2023/01/11 06:45:19;;;;;;;1.10;0.80;;;;;;;10.05;100.00;100532.63;5006714;28;20041;-73
2023/01/11 06:47:45;;;;;;;1.23;0.40;;;;;;;10.02;100.00;100542.50;4992752;28;20057;-72
2023/01/11 06:50:10;;;;;;;0.40;0.30;;;;;;;9.97;100.00;100537.81;4998278;28;20557;-73
2023/01/11 06:52:36;;;;;;;0.20;0.20;;;;;;;10.01;100.00;100536.50;5017494;28;20053;-73
2023/01/11 06:55:02;;;;;;;0.45;0.28;;;;;;;10.06;100.00;100544.63;4991484;28;20037;-73
2023/01/11 06:57:28;;;;;;;0.65;0.20;;;;;;;9.94;100.00;100549.28;5003608;28;20054;-73
2023/01/11 06:59:53;;;;;;;1.00;0.20;;;;;;;10.01;100.00;100551.25;5020740;28;20095;-72
2023/01/11 07:02:19;;;;;;;0.68;0.30;;;;;;;10.00;100.00;100545.25;5000378;28;20720;-73
2023/01/11 07:04:44;;;;;;;1.65;0.65;;;;;;;9.97;100.00;100542.19;5005285;28;20051;-73
2023/01/11 07:07:10;;;;;;;1.60;0.35;;;;;;;10.07;100.00;100551.41;5004516;28;20064;-72
2023/01/11 07:09:35;;;;;;;5.45;1.10;;;;;;;9.99;100.00;100559.16;5016449;28;20029;-72
2023/01/11 07:12:01;;;;;;;1.75;0.40;;;;;;;9.96;100.00;100559.47;4989830;28;20049;-73
2023/01/11 07:14:27;;;;;;;0.40;0.30;;;;;;;9.99;100.00;100563.56;5007721;28;20033;-73
2023/01/11 07:16:52;;;;;;;1.00;0.30;;;;;;;9.81;100.00;100567.03;5006850;28;20052;-73
2023/01/11 07:19:18;;;;;;;2.17;0.40;;;;;;;9.79;100.00;100570.75;5025932;28;20411;-73
2023/01/11 07:21:43;;;;;;;0.57;0.43;;;;;;;9.90;100.00;100581.63;5009692;28;20049;-73
2023/01/11 07:24:09;;;;;;;2.25;0.50;;;;;;;9.82;100.00;100584.22;5009747;28;20030;-73
2023/01/11 07:26:40;;;;;;;0.50;0.40;;;;;;;9.81;100.00;100576.59;5028059;28;20559;-73
2023/01/11 07:29:09;;;;;;;2.25;0.60;;;;;;;9.82;100.00;100580.81;5025850;28;20044;-73
2023/01/11 07:31:34;;;;;;;1.40;0.60;;;;;;;9.77;100.00;100573.50;5007647;28;20037;-73
2023/01/11 07:34:00;;;;;;;3.42;0.57;;;;;;;9.76;100.00;100574.47;5012613;28;20069;-73
2023/01/11 07:36:25;;;;;;;1.52;0.50;;;;;;;9.78;100.00;100566.56;5025485;28;20045;-72
2023/01/11 07:38:51;;;;;;;3.42;0.90;;;;;;;9.83;100.00;100582.41;5017905;28;20034;-73
2023/01/11 07:44:09;;;;;;;1.73;0.70;;;;;;;9.73;100.00;100582.53;5023560;28;20033;-73
2023/01/11 07:46:34;;;;;;;3.08;0.80;;;;;;;9.77;100.00;100601.97;4996064;28;20487;-73
2023/01/11 07:49:00;;;;;;;1.73;0.82;;;;;;;9.83;100.00;100598.78;4998728;28;20025;-73
2023/01/11 07:51:25;;;;;;;6.63;1.13;;;;;;;9.77;100.00;100604.56;5001800;28;20531;-73
2023/01/11 07:53:51;;;;;;;2.83;0.70;;;;;;;9.70;100.00;100612.16;4996238;28;20034;-73
2023/01/11 07:56:16;;;;;;;4.88;1.00;;;;;;;9.70;100.00;100609.56;5010063;28;20044;-73
2023/01/11 07:58:42;;;;;;;4.03;0.90;;;;;;;9.84;100.00;100608.16;4990291;28;20030;-72
2023/01/11 08:01:07;;;;;;;3.13;1.13;;;;;;;9.76;100.00;100613.31;5029323;28;20458;-73
2023/01/11 08:03:33;;;;;;;2.28;1.17;;;;;;;9.75;100.00;100617.66;5003905;28;20033;-73
2023/01/11 08:05:58;;;;;;;5.00;1.38;;;;;;;9.79;100.00;100632.91;4992141;28;20087;-73
2023/01/11 08:08:24;;;;;;;2.30;1.17;;;;;;;9.84;100.00;100641.84;5004375;28;20060;-74
2023/01/11 08:16:18;;;;;;;4.57;1.30;;;;;;;9.89;100.00;100644.78;5002256;28;20038;-73
2023/01/11 08:18:44;;;;;;;4.40;1.50;;;;;;;9.92;100.00;100654.81;5022981;28;20384;-73
2023/01/11 08:21:09;;;;;;;3.72;1.42;;;;;;;9.93;100.00;100658.22;5017802;28;20045;-74
2023/01/11 08:23:35;;;;;;;11.25;1.67;;;;;;;9.77;100.00;100664.13;5010689;28;20029;-73
2023/01/11 08:26:00;;;;;;;5.63;1.50;;;;;;;9.79;100.00;100658.78;5011580;28;20029;-73
2023/01/11 08:28:26;;;;;;;7.05;1.92;;;;;;;9.71;100.00;100675.91;5027528;28;20041;-73
2023/01/11 08:30:51;;;;;;;7.75;2.20;;;;;;;9.63;100.00;100682.84;5012164;28;20034;-73
2023/01/11 08:33:17;;;;;;;12.40;2.60;;;;;;;9.67;100.00;100681.56;5008476;28;20041;-73
2023/01/11 08:35:42;;;;;;;12.05;2.53;;;;;;;9.62;100.00;100688.97;5008316;28;20057;-73
2023/01/11 08:38:07;;;;;;;15.73;4.32;;;;;;;9.57;100.00;100683.41;5010923;28;20025;-73
2023/01/11 08:40:33;;;;;;;8.32;2.72;;;;;;;9.60;100.00;100681.34;5022508;28;20033;-73
2023/01/11 08:42:59;;;;;;;10.75;2.78;;;;;;;9.61;100.00;100679.59;5006640;28;20065;-73
2023/01/11 08:45:25;;;;;;;13.82;3.90;;;;;;;9.57;100.00;100699.78;4995280;28;20049;-73
2023/01/11 08:47:51;;;;;;;13.57;2.67;;;;;;;9.71;100.00;100719.94;5020933;28;20735;-73
2023/01/11 08:50:17;;;;;;;12.63;3.70;;;;;;;9.60;100.00;100709.81;5024579;28;20080;-73
2023/01/11 08:52:43;;;;;;;14.05;3.00;;;;;;;9.54;100.00;100707.84;5024548;28;20655;-72
2023/01/11 08:55:09;;;;;;;12.30;3.03;;;;;;;9.61;100.00;100710.66;4992145;28;20061;-73
2023/01/11 08:57:35;;;;;;;11.90;3.05;;;;;;;9.60;100.00;100720.19;5007309;28;20030;-73
2023/01/11 09:00:03;;;;;;;11.90;3.70;;;;;;;9.61;100.00;100727.00;5006626;28;20061;-73
2023/01/11 09:02:29;;;;;;;13.40;3.33;;;;;;;9.53;100.00;100709.63;5024566;28;20041;-73
2023/01/11 09:04:54;;;;;;;19.65;3.33;;;;;;;9.54;100.00;100721.59;5024649;28;20056;-73
2023/01/11 09:07:20;;;;;;;10.45;3.13;;;;;;;9.55;100.00;100728.41;5007288;28;20544;-73
2023/01/11 09:09:46;;;;;;;20.58;3.35;;;;;;;9.43;100.00;100733.97;5005849;28;20092;-72
2023/01/11 09:12:13;;;;;;;20.20;4.93;;;;;;;9.43;100.00;100739.16;5007978;28;20115;-73
2023/01/11 09:14:40;;;;;;;18.73;3.17;;;;;;;9.41;100.00;100752.22;5005434;28;20041;-73
2023/01/11 09:17:05;;;;;;;18.67;3.45;;;;;;;9.42;100.00;100745.28;5006984;28;20021;-72
2023/01/11 09:19:32;;;;;;;18.67;2.92;;;;;;;9.46;100.00;100751.78;5001889;28;20026;-73
2023/01/11 09:22:01;;;;;;;17.08;4.22;;;;;;;9.46;100.00;100754.38;4987960;28;20057;-72
2023/01/11 09:24:28;;;;;;;18.27;2.58;;;;;;;9.49;100.00;100760.06;5022035;28;20065;-74
2023/01/11 09:26:57;;;;;;;15.32;3.08;;;;;;;9.35;100.00;100763.19;5009663;28;20022;-73
2023/01/11 09:29:22;;;;;;;12.70;3.17;;;;;;;9.35;100.00;100768.34;5004578;28;20096;-73
2023/01/11 09:31:48;;;;;;;20.80;3.15;;;;;;;9.28;100.00;100769.91;5002227;28;20504;-72
2023/01/11 09:34:14;;;;;;;18.63;2.50;;;;;;;9.39;100.00;100780.03;4995661;28;20025;-73
2023/01/11 09:36:39;;;;;;;12.73;2.70;;;;;;;9.24;100.00;100779.75;5022809;28;20049;-73
2023/01/11 09:39:13;;;;;;;21.98;2.80;;;;;;;9.21;100.00;100771.44;5024434;28;20033;-72
2023/01/11 09:41:45;;;;;;;17.20;2.65;;;;;;;9.32;100.00;100779.84;5009003;28;20760;-73
2023/01/11 09:44:22;;;;;;;13.33;2.80;;;;;;;9.22;100.00;100794.59;5018938;28;20091;-73
2023/01/11 09:46:54;;;;;;;18.90;3.63;;;;;;;9.22;100.00;100801.56;5005105;28;20127;-73
2023/01/11 09:49:37;;;;;;;21.92;2.83;;;;;;;9.21;100.00;100811.09;5005414;28;20036;-73
2023/01/11 09:52:28;;;;;;;13.47;2.20;;;;;;;9.22;100.00;100809.31;5005328;28;20081;-72
2023/01/11 09:54:57;;;;;;;20.88;2.40;;;;;;;9.19;100.00;100819.94;5008747;28;20091;-72
2023/01/11 09:57:53;;;;;;;14.45;2.90;;;;;;;9.23;100.00;100810.94;5005848;28;20041;-73
2023/01/11 10:00:40;;;;;;;19.33;2.60;;;;;;;9.18;100.00;100829.50;5019345;28;20049;-73
2023/01/11 10:03:32;;;;;;;22.67;3.00;;;;;;;9.23;100.00;100836.81;5020244;28;20506;-73
2023/01/11 10:06:28;;;;;;;25.90;3.10;;;;;;;9.29;100.00;100836.25;5008949;28;20543;-73
2023/01/11 10:09:09;;;;;;;18.27;3.45;;;;;;;9.26;100.00;100839.91;5025325;28;20044;-73
2023/01/11 10:11:48;;;;;;;26.88;3.72;;;;;;;9.37;100.00;100840.69;5016119;28;20148;-73
2023/01/11 10:14:44;;;;;;;18.75;3.20;;;;;;;9.33;100.00;100838.38;5005054;28;20026;-73
2023/01/11 10:17:41;;;;;;;21.15;3.75;;;;;;;9.30;100.00;100861.94;5023380;28;20488;-73
2023/01/11 10:20:41;;;;;;;23.90;4.05;;;;;;;9.32;100.00;100859.22;5006027;28;20041;-73
2023/01/11 10:23:27;;;;;;;21.27;3.35;;;;;;;9.33;100.00;100863.44;4991902;28;20103;-73
2023/01/11 10:26:00;;;;;;;19.95;2.97;;;;;;;9.33;100.00;100859.06;5006238;28;20045;-72
2023/01/11 10:34:59;;;;;;;18.08;2.83;;;;;;;9.14;100.00;100851.44;5025384;28;21833;-79
2023/01/11 10:43:03;;;;;;;;;;;;;;;9.12;100.00;100855.94;5010414;28;20477;-78
2023/01/11 10:45:50;;;;;;;14.02;3.70;;;;;;;9.17;100.00;100851.13;5017689;28;19921;-79
2023/01/11 10:48:43;;;;;;;16.13;2.85;;;;;;;9.20;100.00;100850.06;5024844;28;20025;-77
2023/01/11 10:51:28;;;;;;;14.18;3.45;;;;;;;9.36;100.00;100850.19;5026764;28;20052;-78
2023/01/11 10:54:13;;;;;;;22.23;3.72;;;;;;;9.48;100.00;100853.41;5022132;28;20030;-79
2023/01/11 10:56:59;;;;;;;22.58;4.30;;;;;;;9.57;100.00;100849.94;5008768;28;20057;-78
2023/01/11 11:00:22;;;;;;;29.17;4.03;;;;;;;9.51;100.00;100850.50;5038398;28;20127;-78
2023/01/11 11:03:16;;;;;;;27.92;4.90;;;;;;;9.57;100.00;100855.13;4970297;28;20057;-79
2023/01/11 11:05:55;;;;;;;36.88;4.22;;;;;;;9.59;100.00;100854.94;5001345;28;20511;-80
2023/01/11 11:08:48;;;;;;;18.80;3.88;;;;;;;9.55;100.00;100854.44;5005360;28;20115;-79
2023/01/11 11:11:37;;;;;;;13.55;4.22;;;;;;;9.55;100.00;100849.28;5016155;28;20126;-79
2023/01/11 11:14:10;;;;;;;18.92;4.10;;;;;;;9.52;100.00;100844.38;5006506;28;20030;-79
2023/01/11 11:16:44;;;;;;;25.08;4.47;;;;;;;9.57;100.00;100843.91;5037632;28;20042;-79
2023/01/11 11:19:15;;;;;;;20.95;4.43;;;;;;;9.46;100.00;100855.34;5036795;28;20134;-79
2023/01/11 11:21:41;;;;;;;25.38;4.70;;;;;;;9.54;100.00;100852.81;5020801;28;20038;-81
2023/01/11 11:24:26;;;;;;;13.70;4.50;;;;;;;9.53;100.00;100852.00;5021899;28;20041;-80
2023/01/11 11:27:02;;;;;;;17.27;4.75;;;;;;;9.61;99.75;100845.28;5005424;28;20515;-78
2023/01/11 11:29:29;;;;;;;15.40;3.70;;;;;;;9.54;98.36;100852.81;5022339;28;20073;-81
2023/01/11 11:31:58;;;;;;;22.38;4.80;;;;;;;9.57;97.74;100851.69;5024469;28;20058;-79
2023/01/11 11:34:26;;;;;;;20.25;4.45;;;;;;;9.43;99.07;100861.59;5025119;28;20038;-81
2023/01/11 11:36:53;;;;;;;11.20;3.90;;;;;;;9.40;98.34;100866.25;5040541;28;20705;-79
2023/01/11 11:39:29;;;;;;;15.80;4.00;;;;;;;9.50;97.72;100860.06;5002450;28;21296;-80
2023/01/11 11:42:03;;;;;;;15.80;3.63;;;;;;;9.46;97.67;100868.28;5021935;28;20034;-79
2023/01/11 11:44:29;;;;;;;14.80;3.83;;;;;;;9.43;98.37;100866.78;5024246;28;20477;-79
2023/01/11 11:47:11;;;;;;;23.00;3.95;;;;;;;9.42;98.20;100866.91;5008287;28;20030;-80
2023/01/11 11:49:38;;;;;;;18.80;3.90;;;;;;;9.45;97.32;100857.09;5000919;28;20085;-78
2023/01/11 11:52:05;;;;;;;18.00;3.00;;;;;;;9.60;95.97;100859.16;5007604;28;20129;-80
2023/01/11 11:54:40;;;;;;;14.55;2.95;;;;;;;9.56;95.73;100848.28;5039928;28;21699;-78
2023/01/11 11:57:12;;;;;;;17.08;2.00;;;;;;;9.57;92.94;100841.34;5023972;28;20064;-80
2023/01/11 11:59:43;;;;;;;23.55;3.00;;;;;;;9.53;91.92;100861.53;5024143;28;20030;-80
2023/01/11 12:02:21;;;;;;;16.38;3.13;;;;;;;9.57;91.28;100860.28;5029060;28;20034;-78
2023/01/11 12:04:48;;;;;;;13.43;2.38;;;;;;;9.59;89.76;100865.28;5011243;28;20034;-79
2023/01/11 12:07:19;;;;;;;17.08;2.30;;;;;;;9.51;89.10;100872.03;5030093;28;20057;-78
2023/01/11 12:09:56;;;;;;;9.70;2.25;;;;;;;9.39;90.74;100883.56;5007663;28;20041;-80
2023/01/11 12:12:22;;;;;;;19.20;3.38;;;;;;;9.43;89.83;100881.50;5003868;28;20448;-80
2023/01/11 12:15:15;;;;;;;14.23;2.33;;;;;;;9.39;90.07;100875.00;5042783;28;20128;-79